• Join FlightAware (Why Join?)
  • Login
  • US Flag 
12:24AM EDT


 

Airport Tracker/Info


-or-


 

Live Flight TrackerFlight Track Log ✈ DAL1331 ✈ 15-Jun-2013 ✈ KBWI - KMSP

Flight Track Log - Related Links

Times and Time Zones

All times are in EDT time to prevent confusion due to time zone crossing. See the DAL1331 flight status page for this flight to view local times or setup timezone preferences in your user account.

Time Position Orientation Groundspeed Altitude Reporting Facility
EDT Latitude Longitude Course Direction KTS MPH feet Rate Location/Type
07:44PM 39.1833 -76.7500 282° West 217 250 2,200  Level Potomac TRACON
07:46PM 39.2000 -76.8333 284° West 249 287 6,100 3,540 Climbing Potomac TRACON
07:47PM 39.2000 -77.1023 270° West  Level FlightAware Approximate
07:47PM 39.2167 -76.9333 282° West 266 306 9,700  Level Potomac TRACON
07:47PM 39.2500 -77.0167 297° West 300 345 11,400 1,800 Climbing Potomac TRACON
07:48PM 39.2669 -77.2001 322° Northwest  Level FlightAware Approximate
07:49PM 39.3579 -77.2912 322° Northwest  Level FlightAware Approximate
07:49PM 39.3000 -77.1333 299° West 352 405 13,300  Level Potomac TRACON
07:50PM 39.3964 -77.4282 282° West  Level FlightAware Approximate
07:50PM 39.3333 -77.2667 288° West 389 448 15,200  Level Potomac TRACON
07:50PM 39.3833 -77.3833 299° West 406 467 16,900 1,260 Climbing Potomac TRACON
07:51PM 39.4175 -77.4800 295° West 420 483 17,500 1,200 Climbing Washington Center
07:52PM 39.4633 -77.6183 293° West 420 483 19,200 1,680 Climbing Washington Center
07:54PM 39.5633 -77.9389 292° West 423 487 22,900 1,920 Climbing Cleveland Center
07:55PM 39.6061 -78.0800 292° West 428 493 25,200 2,040 Climbing Cleveland Center
07:56PM 39.6486 -78.2214 291° West 428 493 27,000 1,680 Climbing Cleveland Center
07:57PM 39.6911 -78.3656 291° West 428 493 28,600 1,500 Climbing Cleveland Center
07:58PM 39.7314 -78.5019 291° West 428 493 30,000 660 Climbing Cleveland Center
07:59PM 39.7714 -78.6439 290° West 428 493 30,000  Level Cleveland Center
08:00PM 39.8092 -78.7833 289° West 422 486 30,000  Level Cleveland Center
08:01PM 39.8486 -78.9228 290° West 422 486 30,000  Level Cleveland Center
08:02PM 39.8922 -79.0625 292° West 422 486 30,000  Level Cleveland Center
08:03PM 39.9317 -79.2022 290° West 422 486 30,000  Level Cleveland Center
08:04PM 39.9728 -79.3425 291° West 422 486 30,000  Level Cleveland Center
08:05PM 40.0347 -79.4714 302° West 422 486 30,000  Level Cleveland Center
08:06PM 40.1006 -79.5978 304° West 422 486 30,000  Level Cleveland Center
08:07PM 40.1639 -79.7247 303° West 422 486 30,000  Level Cleveland Center
08:08PM 40.2275 -79.8489 304° West 415 478 30,000  Level Cleveland Center
08:09PM 40.2822 -79.9572 304° West 415 478 30,000  Level Cleveland Center
08:10PM 40.3497 -80.1008 302° West 415 478 30,000  Level Cleveland Center
08:11PM 40.4106 -80.2231 303° West 415 478 30,000  Level Cleveland Center
08:12PM 40.4756 -80.3511 304° West 410 472 30,000  Level Cleveland Center
08:13PM 40.5361 -80.4603 306° West 416 479 30,000  Level Cleveland Center
08:14PM 40.6050 -80.5994 303° West 416 479 30,000  Level Cleveland Center
08:15PM 40.6611 -80.7117 303° West 416 479 30,000  Level Cleveland Center
08:16PM 40.7153 -80.8461 298° West 416 479 30,000  Level Cleveland Center
08:17PM 40.7647 -80.9833 295° West 416 479 30,000  Level Cleveland Center
08:18PM 40.8164 -81.1372 294° West 416 479 30,000  Level Cleveland Center
08:19PM 40.8675 -81.2750 296° West 416 479 30,000  Level Cleveland Center
08:20PM 40.9167 -81.4103 296° West 422 486 30,000  Level Cleveland Center
08:21PM 40.9658 -81.5483 295° West 422 486 30,000  Level Cleveland Center
08:22PM 41.0125 -81.6839 295° West 422 486 30,000  Level Cleveland Center
08:23PM 41.0631 -81.8222 296° West 417 480 30,000  Level Cleveland Center
08:24PM 41.1075 -81.9444 296° West 422 486 30,000  Level Cleveland Center
08:25PM 41.1581 -82.0778 297° West 412 474 30,000  Level Cleveland Center
08:26PM 41.2042 -82.2197 293° West 412 474 30,000  Level Cleveland Center
08:27PM 41.2561 -82.3703 295° West 412 474 30,000  Level Cleveland Center
08:28PM 41.3058 -82.5097 295° West 412 474 30,000  Level Cleveland Center
08:29PM 41.3514 -82.6439 294° West 405 466 30,000  Level Cleveland Center
08:30PM 41.3989 -82.7783 295° West 405 466 30,000  Level Cleveland Center
08:31PM 41.4442 -82.9128 294° West 405 466 30,000  Level Cleveland Center
08:32PM 41.4933 -83.0531 295° West 405 466 30,000  Level Cleveland Center
08:33PM 41.5325 -83.1739 293° West 405 466 30,000  Level Cleveland Center
08:34PM 41.5794 -83.3092 295° West 405 466 30,000  Level Cleveland Center
08:35PM 41.6261 -83.4472 294° West 405 466 30,000  Level Cleveland Center
08:36PM 41.6706 -83.5856 293° West 405 466 30,000  Level Cleveland Center
08:37PM 41.7169 -83.7211 295° West 405 466 30,000  Level Cleveland Center
08:38PM 41.7628 -83.8628 293° West 405 466 30,000  Level Cleveland Center
08:39PM 41.8092 -83.9961 295° West 405 466 30,000  Level Cleveland Center
08:40PM 41.8550 -84.1350 294° West 405 466 30,000  Level Cleveland Center
08:41PM 41.9086 -84.2803 296° West 405 466 30,000  Level Cleveland Center
08:42PM 41.9406 -84.3908 291° West 402 463 30,000  Level Chicago Center
08:43PM 41.9869 -84.5342 294° West 404 465 30,000  Level Chicago Center
08:44PM 42.0317 -84.6706 294° West 402 463 30,000  Level Chicago Center
08:45PM 42.0850 -84.8344 294° West 399 459 30,000  Level Chicago Center
08:46PM 42.1281 -84.9731 293° West 402 463 30,000  Level Chicago Center
08:48PM 42.1731 -85.1108 294° West 402 463 30,000  Level Chicago Center
08:49PM 42.2158 -85.2500 293° West 403 464 30,000  Level Chicago Center
08:50PM 42.2594 -85.3886 293° West 401 461 30,000  Level Chicago Center
08:51PM 42.3025 -85.5286 293° West 403 464 30,000  Level Chicago Center
08:52PM 42.3467 -85.6669 293° West 400 460 30,000  Level Chicago Center
08:53PM 42.3897 -85.8078 293° West 405 466 30,000  Level Chicago Center
08:54PM 42.4439 -85.9419 299° West 407 468 30,000  Level Chicago Center
08:55PM 42.5111 -86.0986 300° West 399 459 30,000  Level Chicago Center
08:56PM 42.5678 -86.2319 300° West 404 465 30,000  Level Chicago Center
08:57PM 42.6247 -86.3625 301° West 402 463 30,000  Level Chicago Center
08:58PM 42.6811 -86.4953 300° West 402 463 30,000  Level Chicago Center
08:59PM 42.7378 -86.6286 300° West 404 465 30,000  Level Chicago Center
09:00PM 42.7933 -86.7606 300° West 399 459 30,000  Level Chicago Center
09:01PM 42.8497 -86.8917 300° West 398 458 30,000  Level Chicago Center
09:02PM 42.9028 -87.0211 299° West 391 450 30,000  Level Chicago Center
09:03PM 42.9572 -87.1503 300° West 394 453 30,000  Level Chicago Center
09:04PM 43.0219 -87.3050 300° West 391 450 30,000  Level Chicago Center
09:05PM 43.0758 -87.4336 300° West 392 451 30,000  Level Chicago Center
09:06PM 43.1300 -87.5631 300° West 391 450 30,000  Level Chicago Center
09:07PM 43.1833 -87.6931 299° West 392 451 30,000  Level Chicago Center
09:08PM 43.2339 -87.8225 298° West 387 445 30,000  Level Chicago Center
09:09PM 43.2800 -87.9569 295° West 388 447 30,000  Level Chicago Center
09:10PM 43.3339 -88.1122 296° West 385 443 30,000  Level Chicago Center
09:11PM 43.3717 -88.2492 291° West 382 440 30,000  Level Chicago Center
09:12PM 43.4106 -88.3931 290° West 387 445 30,000  Level Chicago Center
09:13PM 43.4433 -88.5447 287° West 395 455 30,000  Level Chicago Center
09:14PM 43.4594 -88.6889 279° West 387 445 30,000  Level Chicago Center
09:15PM 43.4797 -88.8292 281° West 376 433 30,000  Level Chicago Center
09:16PM 43.5008 -88.9750 281° West 385 443 30,000  Level Chicago Center
09:17PM 43.5219 -89.1181 282° West 382 440 30,000  Level Chicago Center
09:18PM 43.5450 -89.2611 283° West 382 440 30,000  Level Chicago Center
09:19PM 43.5967 -89.3889 299° West 401 461 30,000  Level Chicago Center
09:20PM 43.6906 -89.4786 325° Northwest 412 474 30,000  Level Chicago Center
09:21PM 43.7839 -89.6089 315° West 407 468 30,000  Level Chicago Center
09:22PM 43.8622 -89.7219 314° West 407 468 30,000  Level Chicago Center
09:23PM 43.9275 -89.8531 305° West 411 473 30,000  Level Chicago Center
09:24PM 44.0036 -89.9747 311° West 415 478 30,000  Level Chicago Center
09:25PM 44.0650 -90.0772 310° West 417 480 30,000  Level Minneapolis Center
09:26PM 44.1394 -90.2025 310° West 420 483 30,000  Level Minneapolis Center
09:27PM 44.2044 -90.3350 304° West 415 478 30,000  Level Minneapolis Center
09:28PM 44.2758 -90.4936 302° West 412 474 30,000  Level Minneapolis Center
09:29PM 44.3356 -90.6275 302° West 408 470 30,000  Level Minneapolis Center
09:30PM 44.3964 -90.7642 302° West 412 474 30,000  Level Minneapolis Center
09:31PM 44.4564 -90.9000 302° West 411 473 30,000  Level Minneapolis Center
09:32PM 44.5036 -91.0100 301° West 406 467 30,000  Level Minneapolis Center
09:34PM 44.5744 -91.1700 302° West 406 467 30,000 -240 Level Minneapolis Center
09:35PM 44.6317 -91.3039 301° West 403 464 29,600 -780 Descending Minneapolis Center
09:36PM 44.6900 -91.4372 302° West 402 463 28,500 -1,320 Descending Minneapolis Center
09:37PM 44.7472 -91.5719 301° West 403 464 27,000 -1,920 Descending Minneapolis Center
09:38PM 44.7936 -91.6806 301° West 406 467 24,600 -3,480 Descending Minneapolis Center
09:39PM 44.8761 -91.8756 301° West 416 479 19,900 -3,600 Descending Minneapolis Center
09:40PM 44.9333 -92.0100 301° West 403 464 17,300 -3,000 Descending Minneapolis Center
09:41PM 44.9833 -92.1303 300° West 361 415 13,900 -3,060 Descending Minneapolis Center
09:42PM 45.0333 -92.2481 301° West 353 406 11,100 -1,320 Descending Minneapolis Center
09:43PM 45.0344 -92.3808 271° West 350 403 11,000 -300 Descending Minneapolis Center
09:44PM 44.9728 -92.4883 231° Southwest 353 406 10,500 -720 Descending Minneapolis Center
09:45PM 44.9158 -92.6031 235° Southwest 288 331 9,600 -1,320 Descending Minneapolis Center
09:46PM 44.8756 -92.6947 238° Southwest 277 319 7,800 -1,920 Descending Minneapolis Center
09:47PM 44.8297 -92.8047 240° Southwest 272 313 5,700 -1,680 Descending Minneapolis Center
09:48PM 44.8133 -92.9053 257° West 268 308 4,100 -1,020 Descending Minneapolis Center
09:49PM 44.8203 -93.0150 275° West 230 265 3,500 -600 Descending Minneapolis Center